Andalusia, AL

4:51 PM CDT on July 22, 2014 (GMT -0500)
RAWS OPNPND AL US (MOPNA1) Elev 274 ft | 31.09 °N, 86.55 °W | Change Station

Current weather conditions updated 35 minutes ago

Mostly Cloudy
Mostly Cloudy
85 °F
Feels Like 93 °F
N
4
Wind Variable Wind from ESE
Gusts 7.0 mph

Tomorrow is forecast to be Warmer than today.

Today
High -- | Low -- °F
--% Chance of Precip.
Yesterday
High -- | Low -- °F
Precip. -- in
5:57 AM 7:48 PM
Waning Crescent, 15% visible
Pressure 30.02 in
Visibility 10.0 miles
Clouds Clear
Heat Index 93 °F
Dew Point 75 °F
Humidity 72%
Rainfall 1.49 in
Snow Depth Not available.
UV 7 out of 12
Pollen 3.30 out of 12
Air Quality Not available.
Flu Activity Not available.
METAR K79J 222056Z AUTO VRB04KT 10SM CLR 31/23 A3003 RMK AO2 SLP164 T03060228 58010

More Conditions Fewer Conditions

Pressure 30.02 in
Visibility 10.0 miles
Clouds Clear
Heat Index 93 °F
Dew Point 75 °F
Humidity 72%
Rainfall 1.49 in
Snow Depth Not available.
UV 7 out of 12
Pollen 3.30 out of 12
Air Quality Not available.
Flu Activity Not available.
METAR K79J 222056Z AUTO VRB04KT 10SM CLR 31/23 A3003 RMK AO2 SLP164 T03060228 58010

More Conditions Fewer Conditions

10-Day Weather Forecast

Almanac

Astronomy

Jul. 22, 2014 Rise Set
Actual Time 5:57 AM CDT 7:48 PM CDT
Civil Twilight 5:30 AM CDT 8:15 PM CDT
Nautical Twilight 4:57 AM CDT 8:48 PM CDT
Astronomical Twilight 4:23 AM CDT 9:22 PM CDT
Moon 2:27 AM CDT 4:27 PM CDT
Length of Visible Light 14h 45m
Length of Day
13h 51m
Tomorrow will be 1m 10s shorter.
Waning Crescent, 15% of the Moon is Illuminated
Today
Waning Crescent
Jul 26
New
Aug 3
First Quarter
Aug 10
Full
Aug 17
Last Quarter

Today's Extremes

State Highs State Lows

Community

WunderPhotos

Upload Photos

1,736,363 photos uploaded!

Nearby

Snow Depth

Station Depth Elevation
No new snow has been reported.

Earthquake Activity

City Distance Mag. Time & Date
No recent earthquake activity has been reported nearby.
Minimum magnitude displayed is 2.5.

Coastal Water Temperatures

Place Temperature
No Stations Reporting

Nearby Weather Stations

Station Location Temp. Heat Index Dew Point Humidity Wind Precip. Elev Updated Type
Brown Farm, Andalusia, AL 75.1 °F 73 °F 74 °F 98% South  at  3.0 mph 0.22 in / hr 240 ft 1:00 PM CDT Rapid Fire
RAWS OPNPND AL, Wing, AL 85 °F 93 °F 75 °F 72% ESE  at  4 mph 0.00 in / hr 274 ft 4:16 PM CDT MADIS
Chigger Hill off Moore Rd, Andalusia, AL 83.9 °F 93 °F 76 °F 77% ESE  at  0.0 mph 0.00 in / hr 280 ft 4:51 PM CDT Rapid Fire
Red Level, Red Level, AL 83.3 °F 91 °F 76 °F 78% ENE  at  3.0 mph 0.00 in / hr 345 ft 4:41 PM CDT Normal
Sellersville, Jay, FL 83.1 °F 91 °F 75 °F 77% North  at  0.0 mph 0.00 in / hr 240 ft 4:51 PM CDT Rapid Fire
HCN BREWTON 3 NNE AL , Brewton, AL 80 °F 78 °F - - North  at  - 0.00 in / hr 170 ft 3:40 PM CDT MADIS
299/84 Bypass - Hub Brown Rd, Opp, AL 85.7 °F 95 °F 76 °F 72% SE  at  3.0 mph 0.00 in / hr 280 ft 4:46 PM CDT Normal

Show More Stations Show Fewer Stations